Time,TemperatureF,DewpointF,PressureIn,WindDirection,WindDirectionDegrees,WindSpeedMPH,WindSpeedGustMPH,Humidity,HourlyPrecipIn,Conditions,Clouds,dailyrainin,SoftwareType,DateUTC
2013-01-19 00:02:00,20.0,7.0,-100.00,WSW,249,3.0,4.0,57,-99.99,,,-99.99,,2013-01-19 07:02:00,
2013-01-19 00:11:00,19.0,5.0,-100.00,West,263,2.0,3.0,53,-99.99,,,-99.99,,2013-01-19 07:11:00,
2013-01-19 00:22:00,19.0,5.0,-100.00,West,263,2.0,3.0,53,-99.99,,,-99.99,,2013-01-19 07:22:00,
2013-01-19 00:32:00,20.0,6.0,-100.00,East,87,1.0,2.0,53,-99.99,,,-99.99,,2013-01-19 07:32:00,
2013-01-19 00:42:00,20.0,6.0,-100.00,NW,305,1.0,3.0,53,-99.99,,,-99.99,,2013-01-19 07:42:00,
2013-01-19 00:52:00,18.0,6.0,-100.00,WSW,252,4.0,7.0,57,-99.99,,,-99.99,,2013-01-19 07:52:00,
2013-01-19 01:02:00,19.0,5.0,-100.00,SW,233,4.0,6.0,53,-99.99,,,-99.99,,2013-01-19 08:02:00,
2013-01-19 01:12:00,19.0,5.0,-100.00,SW,233,4.0,6.0,53,-99.99,,,-99.99,,2013-01-19 08:12:00,
2013-01-19 01:22:00,20.0,6.0,-100.00,NW,307,4.0,4.0,54,-99.99,,,-99.99,,2013-01-19 08:22:00,
2013-01-19 01:32:00,21.0,6.0,-100.00,West,270,2.0,4.0,51,-99.99,,,-99.99,,2013-01-19 08:32:00,
2013-01-19 01:42:00,21.0,6.0,-100.00,West,270,2.0,4.0,51,-99.99,,,-99.99,,2013-01-19 08:42:00,
2013-01-19 01:52:00,22.0,6.0,-100.00,ESE,112,2.0,2.0,49,-99.99,,,-99.99,,2013-01-19 08:52:00,
2013-01-19 02:02:00,21.0,6.0,-100.00,North,0,0.0,3.0,51,-99.99,,,-99.99,,2013-01-19 09:02:00,
2013-01-19 02:12:00,21.0,6.0,-100.00,North,0,0.0,3.0,51,-99.99,,,-99.99,,2013-01-19 09:12:00,
2013-01-19 02:22:00,22.0,5.0,-100.00,SE,129,0.0,2.0,47,-99.99,,,-99.99,,2013-01-19 09:22:00,
2013-01-19 02:32:00,23.0,6.0,-100.00,ESE,104,4.0,5.0,46,-99.99,,,-99.99,,2013-01-19 09:32:00,
2013-01-19 02:42:00,23.0,6.0,-100.00,ESE,104,4.0,5.0,46,-99.99,,,-99.99,,2013-01-19 09:42:00,
2013-01-19 02:52:00,21.0,6.0,-100.00,WSW,257,1.0,3.0,51,-99.99,,,-99.99,,2013-01-19 09:52:00,
2013-01-19 03:02:00,20.0,5.0,-100.00,North,0,0.0,3.0,52,-99.99,,,-99.99,,2013-01-19 10:02:00,
2013-01-19 03:12:00,20.0,5.0,-100.00,North,0,0.0,3.0,52,-99.99,,,-99.99,,2013-01-19 10:12:00,
2013-01-19 03:22:00,18.0,5.0,-100.00,SW,220,2.0,3.0,56,-99.99,,,-99.99,,2013-01-19 10:22:00,
2013-01-19 03:32:00,18.0,5.0,-100.00,SW,220,2.0,3.0,56,-99.99,,,-99.99,,2013-01-19 10:32:00,
2013-01-19 03:42:00,18.0,4.0,-100.00,WNW,283,2.0,2.0,52,-99.99,,,-99.99,,2013-01-19 10:42:00,
2013-01-19 03:52:00,18.0,4.0,-100.00,WNW,283,2.0,2.0,52,-99.99,,,-99.99,,2013-01-19 10:52:00,
2013-01-19 04:02:00,21.0,4.0,-100.00,ENE,65,3.0,3.0,46,-99.99,,,-99.99,,2013-01-19 11:02:00,
2013-01-19 04:12:00,21.0,6.0,-100.00,East,89,2.0,2.0,50,-99.99,,,-99.99,,2013-01-19 11:12:00,
2013-01-19 05:52:00,22.0,4.0,-100.00,WNW,296,1.0,2.0,45,-99.99,,,-99.99,,2013-01-19 12:52:00,
2013-01-19 06:02:00,21.0,4.0,-100.00,SW,215,2.0,2.0,45,-99.99,,,-99.99,,2013-01-19 13:02:00,
2013-01-19 06:12:00,21.0,4.0,-100.00,SW,215,2.0,2.0,45,-99.99,,,-99.99,,2013-01-19 13:12:00,
2013-01-19 06:22:00,22.0,2.0,-100.00,ENE,72,1.0,2.0,41,-99.99,,,-99.99,,2013-01-19 13:22:00,
2013-01-19 06:33:00,22.0,5.0,-100.00,NE,52,2.0,2.0,46,-99.99,,,-99.99,,2013-01-19 13:33:00,
2013-01-19 06:42:00,22.0,5.0,-100.00,NE,52,2.0,2.0,46,-99.99,,,-99.99,,2013-01-19 13:42:00,
2013-01-19 06:52:00,22.0,4.0,-100.00,SSW,201,2.0,3.0,45,-99.99,,,-99.99,,2013-01-19 13:52:00,
2013-01-19 07:02:00,19.0,4.0,-100.00,SW,225,4.0,5.0,51,-99.99,,,-99.99,,2013-01-19 14:02:00,
2013-01-19 07:12:00,19.0,4.0,-100.00,SW,225,4.0,5.0,51,-99.99,,,-99.99,,2013-01-19 14:12:00,
2013-01-19 07:22:00,20.0,4.0,-100.00,ENE,74,0.0,2.0,48,-99.99,,,-99.99,,2013-01-19 14:22:00,
2013-01-19 07:33:00,21.0,5.0,-100.00,SSE,157,3.0,3.0,48,-99.99,,,-99.99,,2013-01-19 14:33:00,
2013-01-19 07:42:00,21.0,5.0,-100.00,SSE,157,3.0,3.0,48,-99.99,,,-99.99,,2013-01-19 14:42:00,
2013-01-19 07:53:00,21.0,3.0,-100.00,NNE,27,3.0,5.0,44,-99.99,,,-99.99,,2013-01-19 14:53:00,
2013-01-19 08:02:00,20.0,4.0,-100.00,SW,217,1.0,2.0,49,-99.99,,,-99.99,,2013-01-19 15:02:00,
2013-01-19 08:12:00,20.0,4.0,-100.00,SW,217,1.0,2.0,49,-99.99,,,-99.99,,2013-01-19 15:12:00,
2013-01-19 08:22:00,20.0,4.0,-100.00,SW,217,1.0,2.0,49,-99.99,,,-99.99,,2013-01-19 15:22:00,
2013-01-19 08:33:00,18.0,4.0,-100.00,West,267,3.0,4.0,53,-99.99,,,-99.99,,2013-01-19 15:33:00,
2013-01-19 08:42:00,18.0,4.0,-100.00,West,267,3.0,4.0,53,-99.99,,,-99.99,,2013-01-19 15:42:00,
2013-01-19 08:53:00,19.0,5.0,-100.00,SW,226,2.0,4.0,52,-99.99,,,-99.99,,2013-01-19 15:53:00,
2013-01-19 09:02:00,19.0,5.0,-100.00,SW,227,4.0,4.0,52,-99.99,,,-99.99,,2013-01-19 16:02:00,
2013-01-19 09:12:00,19.0,5.0,-100.00,SW,227,4.0,4.0,52,-99.99,,,-99.99,,2013-01-19 16:12:00,
2013-01-19 09:23:00,19.0,5.0,-100.00,SW,227,4.0,4.0,52,-99.99,,,-99.99,,2013-01-19 16:23:00,
2013-01-19 09:32:00,25.0,5.0,-100.00,SW,235,5.0,5.0,42,-99.99,,,-99.99,,2013-01-19 16:32:00,
2013-01-19 09:42:00,28.0,6.0,-100.00,North,0,0.0,2.0,38,-99.99,,,-99.99,,2013-01-19 16:42:00,
2013-01-19 09:53:00,28.0,6.0,-100.00,North,0,0.0,2.0,38,-99.99,,,-99.99,,2013-01-19 16:53:00,
2013-01-19 10:02:00,29.0,7.0,-100.00,North,0,0.0,1.0,37,-99.99,,,-99.99,,2013-01-19 17:02:00,
2013-01-19 10:13:00,32.0,7.0,-100.00,SW,222,1.0,2.0,34,-99.99,,,-99.99,,2013-01-19 17:13:00,
2013-01-19 10:23:00,28.0,6.0,-100.00,West,278,2.0,3.0,39,-99.99,,,-99.99,,2013-01-19 17:23:00,
2013-01-19 10:33:00,28.0,9.0,-100.00,SW,217,3.0,3.0,43,-99.99,,,-99.99,,2013-01-19 17:33:00,
2013-01-19 10:43:00,28.0,9.0,-100.00,SW,217,3.0,3.0,43,-99.99,,,-99.99,,2013-01-19 17:43:00,
2013-01-19 10:53:00,28.0,9.0,-100.00,SW,217,3.0,3.0,43,-99.99,,,-99.99,,2013-01-19 17:53:00,
2013-01-19 11:04:00,30.0,9.0,-100.00,WSW,243,3.0,4.0,40,-99.99,,,-99.99,,2013-01-19 18:04:00,
2013-01-19 11:11:00,34.0,10.0,-100.00,North,0,0.0,1.0,36,-99.99,,,-99.99,,2013-01-19 18:11:00,
2013-01-19 11:25:00,35.0,9.0,-100.00,East,98,2.0,2.0,33,-99.99,,,-99.99,,2013-01-19 18:25:00,
2013-01-19 11:33:00,35.0,9.0,-100.00,East,98,2.0,2.0,33,-99.99,,,-99.99,,2013-01-19 18:33:00,
2013-01-19 11:44:00,34.0,9.0,-100.00,ENE,67,4.0,4.0,34,-99.99,,,-99.99,,2013-01-19 18:44:00,
2013-01-19 11:53:00,34.0,11.0,-100.00,ENE,74,4.0,4.0,38,-99.99,,,-99.99,,2013-01-19 18:53:00,
2013-01-19 12:04:00,36.0,11.0,-100.00,East,88,2.0,3.0,35,-99.99,,,-99.99,,2013-01-19 19:04:00,
2013-01-19 12:15:00,39.0,12.0,-100.00,East,96,1.0,2.0,32,-99.99,,,-99.99,,2013-01-19 19:15:00,
2013-01-19 12:22:00,43.0,12.0,-100.00,North,0,0.0,1.0,28,-99.99,,,-99.99,,2013-01-19 19:22:00,
2013-01-19 12:43:00,36.0,10.0,-100.00,WSW,257,3.0,4.0,34,-99.99,,,-99.99,,2013-01-19 19:43:00,
2013-01-19 12:53:00,36.0,10.0,-100.00,WSW,257,3.0,4.0,34,-99.99,,,-99.99,,2013-01-19 19:53:00,
2013-01-19 13:04:00,36.0,10.0,-100.00,WSW,257,3.0,4.0,34,-99.99,,,-99.99,,2013-01-19 20:04:00,
2013-01-19 13:22:00,35.0,12.0,-100.00,West,261,6.0,6.0,38,-99.99,,,-99.99,,2013-01-19 20:22:00,
2013-01-19 13:35:00,35.0,12.0,-100.00,West,261,6.0,6.0,38,-99.99,,,-99.99,,2013-01-19 20:35:00,
2013-01-19 13:43:00,34.0,14.0,-100.00,WSW,254,6.0,6.0,43,-99.99,,,-99.99,,2013-01-19 20:43:00,
2013-01-19 13:53:00,35.0,16.0,-100.00,WSW,251,3.0,4.0,44,-99.99,,,-99.99,,2013-01-19 20:53:00,
2013-01-19 14:03:00,34.0,14.0,-100.00,WSW,248,4.0,5.0,42,-99.99,,,-99.99,,2013-01-19 21:03:00,
2013-01-19 14:13:00,34.0,14.0,-100.00,WSW,248,4.0,5.0,42,-99.99,,,-99.99,,2013-01-19 21:13:00,
2013-01-19 14:23:00,36.0,14.0,-100.00,WNW,295,2.0,3.0,39,-99.99,,,-99.99,,2013-01-19 21:23:00,
2013-01-19 14:34:00,36.0,14.0,-100.00,WNW,295,2.0,3.0,39,-99.99,,,-99.99,,2013-01-19 21:34:00,
2013-01-19 14:45:00,38.0,14.0,-100.00,NNW,329,0.0,2.0,36,-99.99,,,-99.99,,2013-01-19 21:45:00,
2013-01-19 14:54:00,34.0,13.0,-100.00,East,80,5.0,5.0,41,-99.99,,,-99.99,,2013-01-19 21:54:00,
2013-01-19 15:04:00,34.0,12.0,-100.00,East,90,5.0,5.0,39,-99.99,,,-99.99,,2013-01-19 22:04:00,
2013-01-19 15:14:00,34.0,12.0,-100.00,East,90,5.0,5.0,39,-99.99,,,-99.99,,2013-01-19 22:14:00,
2013-01-19 15:24:00,34.0,12.0,-100.00,East,90,5.0,5.0,39,-99.99,,,-99.99,,2013-01-19 22:24:00,
2013-01-19 15:33:00,34.0,11.0,-100.00,ENE,70,5.0,6.0,39,-99.99,,,-99.99,,2013-01-19 22:33:00,
2013-01-19 15:44:00,33.0,10.0,-100.00,ENE,73,6.0,6.0,36,-99.99,,,-99.99,,2013-01-19 22:44:00,
2013-01-19 16:05:00,33.0,12.0,-100.00,East,82,4.0,4.0,40,-99.99,,,-99.99,,2013-01-19 23:05:00,
2013-01-19 16:13:00,34.0,10.0,-100.00,ENE,73,3.0,3.0,36,-99.99,,,-99.99,,2013-01-19 23:13:00,
2013-01-19 16:23:00,36.0,10.0,-100.00,East,94,1.0,2.0,33,-99.99,,,-99.99,,2013-01-19 23:23:00,
2013-01-19 16:33:00,36.0,10.0,-100.00,East,94,1.0,2.0,33,-99.99,,,-99.99,,2013-01-19 23:33:00,
2013-01-19 16:44:00,35.0,9.0,-100.00,East,94,1.0,2.0,33,-99.99,,,-99.99,,2013-01-19 23:44:00,
2013-01-19 16:54:00,36.0,10.0,-100.00,East,91,0.0,1.0,33,-99.99,,,-99.99,,2013-01-19 23:54:00,
2013-01-19 17:05:00,36.0,10.0,-100.00,East,91,0.0,1.0,33,-99.99,,,-99.99,,2013-01-20 00:05:00,
2013-01-19 17:14:00,36.0,9.0,-100.00,North,0,0.0,0.0,32,-99.99,,,-99.99,,2013-01-20 00:14:00,
2013-01-19 17:22:00,33.0,9.0,-100.00,East,82,2.0,3.0,36,-99.99,,,-99.99,,2013-01-20 00:22:00,
2013-01-19 17:33:00,33.0,9.0,-100.00,East,82,2.0,3.0,36,-99.99,,,-99.99,,2013-01-20 00:33:00,
2013-01-19 17:44:00,31.0,10.0,-100.00,South,191,1.0,2.0,41,-99.99,,,-99.99,,2013-01-20 00:44:00,
2013-01-19 17:53:00,27.0,10.0,-100.00,West,270,1.0,2.0,46,-99.99,,,-99.99,,2013-01-20 00:53:00,
2013-01-19 18:03:00,28.0,10.0,-100.00,ESE,104,2.0,2.0,46,-99.99,,,-99.99,,2013-01-20 01:03:00,
2013-01-19 18:15:00,28.0,10.0,-100.00,ESE,104,2.0,2.0,46,-99.99,,,-99.99,,2013-01-20 01:15:00,
2013-01-19 18:22:00,25.0,9.0,-100.00,ESE,106,1.0,1.0,50,-99.99,,,-99.99,,2013-01-20 01:22:00,
2013-01-19 18:33:00,25.0,9.0,-100.00,ESE,106,1.0,1.0,50,-99.99,,,-99.99,,2013-01-20 01:33:00,
2013-01-19 18:43:00,25.0,8.0,-100.00,East,87,2.0,2.0,45,-99.99,,,-99.99,,2013-01-20 01:43:00,
2013-01-19 19:03:00,25.0,8.0,-100.00,ESE,107,1.0,2.0,47,-99.99,,,-99.99,,2013-01-20 02:03:00,
2013-01-19 19:13:00,25.0,7.0,-100.00,SE,132,2.0,2.0,45,-99.99,,,-99.99,,2013-01-20 02:13:00,
2013-01-19 19:23:00,25.0,7.0,-100.00,North,0,0.0,2.0,45,-99.99,,,-99.99,,2013-01-20 02:23:00,
2013-01-19 19:34:00,26.0,9.0,-100.00,SE,129,2.0,2.0,46,-99.99,,,-99.99,,2013-01-20 02:34:00,
2013-01-19 19:43:00,26.0,8.0,-100.00,North,0,0.0,1.0,47,-99.99,,,-99.99,,2013-01-20 02:43:00,
2013-01-19 19:50:00,27.0,9.0,-100.00,East,80,3.0,3.0,45,-99.99,,,-99.99,,2013-01-20 02:50:00,
2013-01-19 19:53:00,25.0,9.0,-100.00,NE,56,2.0,2.0,49,-99.99,,,-99.99,,2013-01-20 02:53:00,
2013-01-19 20:04:00,27.0,10.0,-100.00,East,98,3.0,4.0,47,-99.99,,,-99.99,,2013-01-20 03:04:00,
2013-01-19 20:13:00,27.0,10.0,-100.00,East,98,3.0,4.0,47,-99.99,,,-99.99,,2013-01-20 03:13:00,
2013-01-19 20:22:00,27.0,9.0,-100.00,East,80,3.0,3.0,45,-99.99,,,-99.99,,2013-01-20 03:22:00,
2013-01-19 20:33:00,27.0,9.0,-100.00,East,80,3.0,3.0,45,-99.99,,,-99.99,,2013-01-20 03:33:00,
2013-01-19 20:43:00,27.0,9.0,-100.00,East,80,3.0,3.0,45,-99.99,,,-99.99,,2013-01-20 03:43:00,
2013-01-19 21:34:00,25.0,7.0,-100.00,NE,56,3.0,3.0,47,-99.99,,,-99.99,,2013-01-20 04:34:00,
2013-01-19 21:44:00,25.0,7.0,-100.00,NE,56,3.0,3.0,47,-99.99,,,-99.99,,2013-01-20 04:44:00,
2013-01-19 21:53:00,26.0,7.0,-100.00,East,83,2.0,3.0,44,-99.99,,,-99.99,,2013-01-20 04:53:00,
2013-01-19 22:03:00,26.0,7.0,-100.00,East,83,2.0,3.0,44,-99.99,,,-99.99,,2013-01-20 05:03:00,
2013-01-19 22:12:00,26.0,7.0,-100.00,East,83,2.0,3.0,44,-99.99,,,-99.99,,2013-01-20 05:12:00,
2013-01-19 22:22:00,23.0,7.0,-100.00,SW,222,0.0,1.0,49,-99.99,,,-99.99,,2013-01-20 05:22:00,
2013-01-19 22:32:00,23.0,7.0,-100.00,SW,222,0.0,1.0,49,-99.99,,,-99.99,,2013-01-20 05:32:00,
2013-01-19 22:42:00,24.0,7.0,-100.00,WSW,254,2.0,2.0,48,-99.99,,,-99.99,,2013-01-20 05:42:00,
2013-01-19 22:53:00,24.0,7.0,-100.00,SW,233,2.0,2.0,47,-99.99,,,-99.99,,2013-01-20 05:53:00,
2013-01-19 23:02:00,23.0,8.0,-100.00,SSE,153,1.0,2.0,50,-99.99,,,-99.99,,2013-01-20 06:02:00,
2013-01-19 23:12:00,23.0,8.0,-100.00,SSE,153,1.0,2.0,50,-99.99,,,-99.99,,2013-01-20 06:12:00,
2013-01-19 23:22:00,26.0,7.0,-100.00,ESE,109,1.0,1.0,43,-99.99,,,-99.99,,2013-01-20 06:22:00,
2013-01-19 23:32:00,26.0,7.0,-100.00,ESE,109,1.0,1.0,43,-99.99,,,-99.99,,2013-01-20 06:32:00,
2013-01-19 23:42:00,24.0,7.0,-100.00,SSE,167,0.0,2.0,46,-99.99,,,-99.99,,2013-01-20 06:42:00,
2013-01-19 23:52:00,23.0,7.0,-100.00,SSE,162,1.0,2.0,48,-99.99,,,-99.99,,2013-01-20 06:52:00,